createdAt,value
2022-08-09T00:01:48.401Z,62.49
2022-08-09T00:04:33.957Z,62.48
2022-08-09T00:07:07.664Z,62.15
2022-08-09T00:09:38.817Z,63.99
2022-08-09T00:12:07.142Z,62.83
2022-08-09T00:14:38.194Z,63.86
2022-08-09T00:17:06.208Z,64.17
2022-08-09T00:19:34.092Z,63.75
2022-08-09T00:22:04.328Z,64.86
2022-08-09T00:24:32.565Z,65.35
2022-08-09T00:27:00.302Z,63.48
2022-08-09T00:30:10.119Z,66.73
2022-08-09T00:32:26.759Z,64.81
2022-08-09T00:34:55.463Z,65.76
2022-08-09T00:37:24.427Z,64.33
2022-08-09T00:40:12.230Z,64.83
2022-08-09T00:44:15.389Z,68.01
2022-08-09T00:45:26.765Z,67.09
2022-08-09T00:47:55.516Z,70.58
2022-08-09T00:50:23.493Z,70.01
2022-08-09T00:52:52.832Z,71.41
2022-08-09T00:56:03.831Z,70.74
2022-08-09T00:58:09.249Z,69.90
2022-08-09T01:00:44.257Z,71.18
2022-08-09T01:03:17.018Z,68.25
2022-08-09T01:05:54.561Z,69.59
2022-08-09T01:08:32.206Z,70.32
2022-08-09T01:11:15.271Z,67.34
2022-08-09T01:13:59.234Z,67.07
2022-08-09T01:16:32.980Z,68.51
2022-08-09T01:19:04.379Z,67.70
2022-08-09T01:21:51.350Z,66.81
2022-08-09T01:24:34.961Z,67.11
2022-08-09T01:27:08.060Z,67.19
2022-08-09T01:29:56.386Z,66.92
2022-08-09T01:32:34.105Z,66.92
2022-08-09T01:35:28.269Z,66.88
2022-08-09T01:38:10.222Z,67.24
2022-08-09T01:40:52.839Z,67.12
2022-08-09T01:43:50.721Z,72.30
2022-08-09T01:46:25.001Z,69.52
2022-08-09T01:48:57.341Z,66.58
2022-08-09T01:51:32.117Z,67.72
2022-08-09T01:54:02.104Z,70.62
2022-08-09T01:56:35.086Z,68.98
2022-08-09T01:59:09.317Z,66.23
2022-08-09T02:01:57.891Z,66.24
2022-08-09T02:04:28.527Z,68.88
2022-08-09T02:06:59.090Z,67.29
2022-08-09T02:09:42.551Z,67.80
2022-08-09T02:12:17.996Z,68.81
2022-08-09T02:14:52.959Z,68.56
2022-08-09T02:17:59.545Z,69.96
2022-08-09T02:20:15.911Z,70.53
2022-08-09T02:23:03.024Z,69.32
2022-08-09T02:25:42.346Z,70.12
2022-08-09T02:28:18.077Z,70.98
2022-08-09T02:30:51.736Z,74.01
2022-08-09T02:33:38.188Z,74.38
2022-08-09T02:36:16.145Z,76.82
2022-08-09T02:38:49.912Z,76.35
2022-08-09T02:41:32.636Z,75.16
2022-08-09T02:44:13.749Z,76.02
2022-08-09T02:46:59.928Z,75.81
2022-08-09T02:49:40.945Z,76.55
2022-08-09T02:52:13.615Z,76.09
2022-08-09T02:54:54.637Z,75.71
2022-08-09T02:57:24.995Z,76.25
2022-08-09T03:00:25.639Z,75.34
2022-08-09T03:02:59.827Z,75.09
2022-08-09T03:05:31.632Z,75.38
2022-08-09T03:08:03.968Z,78.33
2022-08-09T03:10:34.816Z,80.28
2022-08-09T03:13:03.251Z,80.34
2022-08-09T03:16:04.727Z,79.48
2022-08-09T03:18:31.043Z,77.55
2022-08-09T03:21:00.458Z,75.87
2022-08-09T03:23:29.310Z,75.73
2022-08-09T03:26:03.760Z,76.49
2022-08-09T03:28:33.889Z,77.23
2022-08-09T03:31:10.203Z,77.40
2022-08-09T03:33:54.315Z,77.27
2022-08-09T03:36:27.277Z,76.13
2022-08-09T03:38:56.578Z,75.62
2022-08-09T03:41:29.858Z,74.32
2022-08-09T03:44:12.215Z,73.98
2022-08-09T03:46:39.617Z,74.33
2022-08-09T03:49:09.831Z,74.57
2022-08-09T03:51:56.287Z,75.14
2022-08-09T03:54:29.793Z,75.21
2022-08-09T03:57:02.101Z,75.18
2022-08-09T03:59:53.251Z,76.03
2022-08-09T04:02:26.690Z,74.02
2022-08-09T04:05:00.871Z,75.14
2022-08-09T04:07:47.695Z,74.75
2022-08-09T04:10:20.501Z,74.39
2022-08-09T04:12:49.749Z,74.91
2022-08-09T04:15:39.083Z,73.92
2022-08-09T04:18:07.634Z,74.39
2022-08-09T04:20:36.475Z,74.71
2022-08-09T04:23:03.850Z,74.49
2022-08-09T04:25:37.837Z,75.75
2022-08-09T04:28:05.484Z,76.29
2022-08-09T04:30:32.922Z,75.61
2022-08-09T04:33:01.270Z,75.19
2022-08-09T04:35:29.443Z,75.01
2022-08-09T04:38:03.680Z,74.78
2022-08-09T04:40:36.174Z,74.77
2022-08-09T04:43:04.095Z,74.79
2022-08-09T04:45:35.748Z,75.05
2022-08-09T04:48:10.750Z,75.63
2022-08-09T04:50:38.386Z,74.75
2022-08-09T04:53:07.168Z,75.29
2022-08-09T04:55:57.523Z,75.73
2022-08-09T04:58:26.271Z,75.75
2022-08-09T05:00:54.441Z,75.93
2022-08-09T05:03:41.305Z,76.31
2022-08-09T05:06:11.228Z,76.23
2022-08-09T05:08:43.910Z,76.00
2022-08-09T05:11:15.632Z,75.91
2022-08-09T05:13:43.125Z,75.16
2022-08-09T05:16:10.666Z,74.68
2022-08-09T05:18:58.643Z,74.04
2022-08-09T05:21:30.130Z,73.42
2022-08-09T05:24:02.124Z,73.51
2022-08-09T05:26:37.081Z,72.96
2022-08-09T05:29:17.389Z,73.48
2022-08-09T05:31:47.534Z,73.33
2022-08-09T05:34:19.636Z,72.15
2022-08-09T05:36:47.549Z,71.80
2022-08-09T05:39:28.590Z,71.31
2022-08-09T05:42:01.497Z,71.78
2022-08-09T05:44:32.621Z,71.31
2022-08-09T05:47:00.922Z,70.52
2022-08-09T05:50:11.036Z,69.64
2022-08-09T05:52:20.390Z,70.70
2022-08-09T05:54:49.359Z,69.03
2022-08-09T05:57:19.309Z,68.48
2022-08-09T05:59:47.179Z,69.74
2022-08-09T06:02:16.952Z,70.49
2022-08-09T06:04:46.300Z,70.70
2022-08-09T06:07:21.294Z,67.81
2022-08-09T06:09:54.643Z,67.17
2022-08-09T06:12:30.136Z,64.82
2022-08-09T06:15:01.045Z,65.00
2022-08-09T06:17:40.250Z,65.77
2022-08-09T06:20:09.361Z,65.48
2022-08-09T06:22:37.026Z,65.52
2022-08-09T06:25:08.600Z,64.36
2022-08-09T06:27:41.385Z,63.05
2022-08-09T06:30:14.262Z,62.40
2022-08-09T06:33:00.136Z,60.55
2022-08-09T06:35:55.715Z,61.33
2022-08-09T06:38:18.289Z,60.88
2022-08-09T06:40:48.386Z,60.19
2022-08-09T06:43:22.294Z,58.47
2022-08-09T06:46:08.030Z,57.73
2022-08-09T06:48:42.840Z,57.78
2022-08-09T06:51:11.600Z,57.35
2022-08-09T06:53:39.489Z,57.45
2022-08-09T06:56:09.202Z,56.41
2022-08-09T07:00:47.569Z,57.09
2022-08-09T07:01:27.388Z,56.23
2022-08-09T07:04:00.373Z,55.07
2022-08-09T07:06:31.511Z,55.68
2022-08-09T07:08:59.197Z,54.79
2022-08-09T07:11:34.241Z,54.25
2022-08-09T07:14:15.589Z,53.96
2022-08-09T07:16:48.989Z,53.18
2022-08-09T07:19:23.382Z,52.17
2022-08-09T07:21:57.714Z,52.54
2022-08-09T07:24:32.155Z,52.95
2022-08-09T07:27:11.137Z,54.01
2022-08-09T07:29:56.835Z,52.71
2022-08-09T07:32:33.729Z,52.53
2022-08-09T07:35:08.175Z,51.83
2022-08-09T07:37:43.457Z,50.89
2022-08-09T07:40:17.701Z,49.56
2022-08-09T07:42:55.625Z,50.59
2022-08-09T07:45:38.007Z,49.88
2022-08-09T07:48:28.531Z,49.36
2022-08-09T07:51:09.309Z,50.19
2022-08-09T07:54:04.462Z,49.91
2022-08-09T07:56:32.484Z,50.22
2022-08-09T07:59:01.350Z,48.49
2022-08-09T08:01:33.151Z,47.21
2022-08-09T08:04:02.358Z,47.69
2022-08-09T08:06:32.133Z,48.54
2022-08-09T08:09:05.058Z,48.04
2022-08-09T08:12:10.351Z,48.59
2022-08-09T08:14:24.274Z,45.36
2022-08-09T08:17:07.658Z,47.16
2022-08-09T08:19:36.743Z,46.61
2022-08-09T08:22:04.888Z,44.77
2022-08-09T08:24:35.313Z,43.64
2022-08-09T08:27:16.735Z,41.01
2022-08-09T08:29:50.086Z,43.33
2022-08-09T08:32:29.018Z,43.07
2022-08-09T08:34:58.840Z,42.26
2022-08-09T08:37:41.467Z,41.13
2022-08-09T08:40:15.464Z,39.83
2022-08-09T08:42:46.993Z,42.42
2022-08-09T08:45:37.350Z,41.19
2022-08-09T08:48:06.043Z,42.32
2022-08-09T08:50:33.885Z,40.93
2022-08-09T08:53:03.980Z,40.38
2022-08-09T08:55:32.206Z,41.36
2022-08-09T08:57:59.973Z,40.10
2022-08-09T09:00:34.294Z,41.87
2022-08-09T09:03:11.385Z,38.66
2022-08-09T09:05:58.105Z,39.37
2022-08-09T09:08:40.512Z,39.05
2022-08-09T09:11:17.863Z,40.47
2022-08-09T09:13:57.587Z,39.93
2022-08-09T09:16:34.213Z,40.14
2022-08-09T09:22:05.034Z,39.50
2022-08-09T09:24:37.855Z,39.14
2022-08-09T09:27:07.625Z,39.59
2022-08-09T09:30:14.038Z,37.33
2022-08-09T09:32:34.808Z,35.50
2022-08-09T09:35:09.186Z,34.96
2022-08-09T09:37:40.576Z,36.42
2022-08-09T09:40:11.742Z,34.39
2022-08-09T09:42:46.089Z,39.08
2022-08-09T09:45:14.444Z,38.04
2022-08-09T09:47:58.331Z,37.44
2022-08-09T09:50:49.363Z,34.53
2022-08-09T09:53:20.838Z,35.75
2022-08-09T09:56:03.857Z,33.66
2022-08-09T09:58:45.420Z,33.12
2022-08-09T10:01:37.378Z,37.97
2022-08-09T10:04:16.211Z,35.51
2022-08-09T10:06:58.890Z,35.33
2022-08-09T10:09:46.459Z,36.81
2022-08-09T10:12:29.440Z,34.15
2022-08-09T10:15:07.745Z,33.96
2022-08-09T10:17:56.582Z,36.63
2022-08-09T10:20:35.631Z,33.88
2022-08-09T10:23:20.415Z,31.85
2022-08-09T10:26:06.836Z,33.86
2022-08-09T10:28:38.874Z,34.11
2022-08-09T10:34:10.344Z,33.67
2022-08-09T10:36:47.813Z,33.83
2022-08-09T10:39:18.285Z,34.18
2022-08-09T10:41:46.200Z,32.22
2022-08-09T10:44:18.137Z,32.01
2022-08-09T10:47:20.435Z,31.95
2022-08-09T10:50:02.213Z,32.76
2022-08-09T10:52:47.910Z,32.35
2022-08-09T10:55:20.829Z,32.55
2022-08-09T10:57:51.980Z,33.57
2022-08-09T11:01:35.884Z,31.03
2022-08-09T11:03:50.195Z,31.62
2022-08-09T11:06:23.006Z,29.63
2022-08-09T11:08:53.263Z,31.14
2022-08-09T11:11:22.429Z,30.94
2022-08-09T11:14:31.822Z,30.44
2022-08-09T11:16:59.872Z,31.88
2022-08-09T11:20:11.311Z,29.60
2022-08-09T11:23:00.827Z,29.80
2022-08-09T11:25:48.477Z,31.28
2022-08-09T11:28:56.477Z,28.73
2022-08-09T11:31:49.287Z,29.87
2022-08-09T11:34:27.425Z,31.97
2022-08-09T11:36:56.809Z,31.34
2022-08-09T11:39:25.565Z,28.57
2022-08-09T11:42:14.657Z,29.01
2022-08-09T11:44:47.149Z,29.43
2022-08-09T11:47:15.902Z,30.00
2022-08-09T11:50:52.485Z,29.90
2022-08-09T11:53:44.000Z,30.02
2022-08-09T11:56:41.945Z,27.45
2022-08-09T11:59:24.801Z,28.09
2022-08-09T12:02:16.930Z,27.13
2022-08-09T12:04:46.195Z,30.61
2022-08-09T12:07:14.315Z,30.10
2022-08-09T12:09:43.996Z,28.51
2022-08-09T12:12:20.302Z,28.88
2022-08-09T12:15:07.205Z,27.52
2022-08-09T12:17:42.848Z,28.91
2022-08-09T12:20:16.813Z,30.84
2022-08-09T12:22:53.191Z,27.68
2022-08-09T12:25:36.742Z,27.23
2022-08-09T12:29:15.035Z,27.29
2022-08-09T12:30:58.817Z,26.79
2022-08-09T12:33:50.833Z,27.76
2022-08-09T12:36:27.667Z,27.64
2022-08-09T12:39:01.753Z,28.52
2022-08-09T12:41:36.389Z,28.04
2022-08-09T12:44:10.026Z,28.83
2022-08-09T12:46:43.365Z,27.80
2022-08-09T12:49:18.061Z,27.60
2022-08-09T12:52:00.689Z,26.02
2022-08-09T12:55:03.290Z,26.45
2022-08-09T12:57:38.594Z,27.94
2022-08-09T13:00:17.106Z,26.09
2022-08-09T13:02:54.078Z,27.79
2022-08-09T13:05:25.310Z,28.63
2022-08-09T13:08:13.878Z,27.48
2022-08-09T13:10:52.107Z,27.23
2022-08-09T13:13:38.102Z,25.76
2022-08-09T13:16:19.653Z,24.48
2022-08-09T13:18:53.516Z,25.42
2022-08-09T13:22:36.846Z,24.89
2022-08-09T13:24:42.617Z,25.33
2022-08-09T13:26:58.822Z,25.78
2022-08-09T13:29:28.561Z,25.46
2022-08-09T13:32:15.470Z,24.56
2022-08-09T13:34:47.221Z,24.70
2022-08-09T13:37:24.766Z,24.23
2022-08-09T13:41:50.417Z,26.70
2022-08-09T13:42:50.663Z,27.16
2022-08-09T13:45:18.653Z,26.45
2022-08-09T13:47:51.254Z,27.08
2022-08-09T13:50:30.516Z,27.34
2022-08-09T13:52:59.307Z,27.81
2022-08-09T13:55:29.182Z,27.69
2022-08-09T13:57:58.288Z,27.59
2022-08-09T14:00:28.634Z,27.08
2022-08-09T14:03:03.864Z,28.78
2022-08-09T14:06:00.527Z,28.83
2022-08-09T14:08:30.698Z,28.39
2022-08-09T14:11:01.233Z,28.53
2022-08-09T14:14:22.539Z,28.92
2022-08-09T14:16:19.978Z,29.93
2022-08-09T14:18:58.099Z,30.19
2022-08-09T14:21:29.273Z,29.90
2022-08-09T14:23:57.725Z,30.94
2022-08-09T14:26:34.000Z,30.36
2022-08-09T14:29:08.364Z,31.97
2022-08-09T14:31:54.569Z,32.67
2022-08-09T14:34:31.536Z,33.12
2022-08-09T14:37:06.779Z,32.43
2022-08-09T14:39:40.461Z,32.82
2022-08-09T14:42:40.577Z,34.08
2022-08-09T14:46:39.731Z,32.53
2022-08-09T14:47:57.534Z,33.83
2022-08-09T14:50:27.275Z,32.73
2022-08-09T14:52:56.482Z,33.00
2022-08-09T14:55:25.485Z,33.90
2022-08-09T14:57:56.972Z,35.07
2022-08-09T15:00:25.109Z,34.70
2022-08-09T15:02:54.456Z,34.91
2022-08-09T15:05:25.960Z,33.27
2022-08-09T15:07:58.188Z,33.38
2022-08-09T15:10:26.089Z,33.84
2022-08-09T15:12:53.994Z,33.62
2022-08-09T15:15:22.312Z,33.85
2022-08-09T15:17:52.704Z,34.44
2022-08-09T15:21:55.401Z,34.17
2022-08-09T15:24:02.412Z,33.51
2022-08-09T15:25:58.621Z,33.92
2022-08-09T15:28:28.302Z,34.06
2022-08-09T15:31:07.283Z,33.34
2022-08-09T15:34:18.007Z,33.38
2022-08-09T15:36:29.040Z,31.40
2022-08-09T15:38:59.813Z,33.05
2022-08-09T15:41:31.660Z,32.71
2022-08-09T15:44:00.428Z,34.13
2022-08-09T15:46:34.399Z,32.83
2022-08-09T15:49:20.623Z,33.26
2022-08-09T15:52:03.147Z,33.46
2022-08-09T15:54:46.297Z,33.01
2022-08-09T15:57:19.260Z,32.48
2022-08-09T16:00:06.269Z,31.95
2022-08-09T16:02:33.889Z,32.25
2022-08-09T16:05:02.455Z,34.42
2022-08-09T16:07:51.040Z,32.83
2022-08-09T16:10:38.796Z,32.48
2022-08-09T16:13:20.887Z,32.69
2022-08-09T16:16:10.586Z,33.00
2022-08-09T16:18:44.610Z,32.97
2022-08-09T16:21:17.176Z,33.77
2022-08-09T16:23:55.506Z,34.41
2022-08-09T16:26:35.316Z,33.53
2022-08-09T16:29:11.588Z,33.92
2022-08-09T16:32:19.669Z,33.76
2022-08-09T16:34:29.259Z,34.34
2022-08-09T16:36:57.124Z,33.74
2022-08-09T16:39:25.882Z,34.71
2022-08-09T16:42:02.562Z,33.88
2022-08-09T16:44:32.222Z,33.20
2022-08-09T16:47:04.095Z,32.22
2022-08-09T16:50:30.302Z,32.20
2022-08-09T16:52:35.961Z,33.07
2022-08-09T16:55:04.108Z,31.96
2022-08-09T16:58:08.769Z,33.42
2022-08-09T17:00:24.565Z,33.80
2022-08-09T17:02:52.349Z,33.49
2022-08-09T17:05:24.822Z,32.91
2022-08-09T17:08:46.216Z,32.96
2022-08-09T17:10:59.826Z,34.44
2022-08-09T17:13:34.472Z,33.08
2022-08-09T17:16:02.653Z,33.30
2022-08-09T17:18:30.486Z,33.28
2022-08-09T17:20:57.829Z,32.62
2022-08-09T17:24:21.121Z,33.00
2022-08-09T17:26:13.263Z,34.05
2022-08-09T17:28:45.904Z,34.43
2022-08-09T17:31:15.921Z,34.64
2022-08-09T17:33:43.552Z,34.98
2022-08-09T17:36:11.029Z,34.84
2022-08-09T17:38:43.522Z,34.64
2022-08-09T17:41:37.639Z,35.29
2022-08-09T17:44:38.852Z,34.85
2022-08-09T17:46:57.726Z,34.51
2022-08-09T17:49:25.532Z,35.74
2022-08-09T17:51:57.735Z,35.51
2022-08-09T17:54:29.539Z,35.66
2022-08-09T17:56:57.465Z,36.05
2022-08-09T17:59:37.917Z,36.21
2022-08-09T18:02:11.266Z,36.47
2022-08-09T18:04:43.345Z,36.09
2022-08-09T18:07:11.540Z,37.02
2022-08-09T18:10:04.420Z,37.88
2022-08-09T18:12:40.907Z,40.69
2022-08-09T18:15:21.971Z,41.11
2022-08-09T18:18:09.639Z,41.07
2022-08-09T18:21:10.370Z,41.59
2022-08-09T18:24:09.446Z,41.48
2022-08-09T18:26:27.878Z,42.06
2022-08-09T18:30:39.248Z,42.25
2022-08-09T18:31:54.932Z,41.97
2022-08-09T18:34:24.014Z,42.01
2022-08-09T18:36:53.470Z,42.15
2022-08-09T18:39:21.024Z,42.21
2022-08-09T18:41:52.821Z,42.37
2022-08-09T18:44:25.548Z,42.70
2022-08-09T18:47:07.365Z,43.18
2022-08-09T18:49:43.466Z,43.53
2022-08-09T18:52:18.729Z,43.00
2022-08-09T18:54:53.431Z,43.40
2022-08-09T18:57:22.801Z,43.61
2022-08-09T18:59:58.836Z,42.84
2022-08-09T19:02:32.636Z,42.87
2022-08-09T19:05:04.441Z,43.43
2022-08-09T19:07:59.313Z,44.40
2022-08-09T19:10:37.082Z,44.22
2022-08-09T19:13:17.227Z,44.75
2022-08-09T19:15:50.202Z,45.01
2022-08-09T19:18:35.191Z,45.08
2022-08-09T19:21:09.191Z,45.37
2022-08-09T19:24:37.669Z,45.39
2022-08-09T19:26:30.989Z,45.90
2022-08-09T19:29:02.466Z,47.10
2022-08-09T19:31:45.532Z,47.36
2022-08-09T19:34:22.104Z,47.57
2022-08-09T19:36:52.195Z,48.21
2022-08-09T19:39:43.600Z,49.31
2022-08-09T19:42:08.381Z,49.41
2022-08-09T19:44:36.011Z,50.49
2022-08-09T19:47:03.394Z,50.29
2022-08-09T19:50:06.570Z,51.12
2022-08-09T19:52:20.477Z,51.64
2022-08-09T19:54:57.252Z,51.75
2022-08-09T19:57:26.603Z,51.76
2022-08-09T20:00:05.465Z,51.68
2022-08-09T20:04:10.092Z,53.05
2022-08-09T20:05:24.912Z,53.84
2022-08-09T20:07:59.398Z,53.16
2022-08-09T20:10:34.780Z,54.99
2022-08-09T20:13:06.361Z,55.64
2022-08-09T20:16:35.537Z,55.29
2022-08-09T20:18:22.092Z,56.54
2022-08-09T20:20:55.285Z,56.32
2022-08-09T20:23:23.920Z,56.20
2022-08-09T20:26:06.832Z,55.50
2022-08-09T20:28:47.971Z,55.71
2022-08-09T20:31:16.329Z,56.05
2022-08-09T20:33:44.882Z,56.97
2022-08-09T20:36:14.006Z,57.05
2022-08-09T20:41:32.102Z,56.63
2022-08-09T20:44:02.744Z,57.31
2022-08-09T20:46:42.293Z,56.52
2022-08-09T20:49:12.933Z,57.36
2022-08-09T20:51:42.496Z,57.21
2022-08-09T20:54:16.690Z,57.58
2022-08-09T20:56:47.199Z,59.14
2022-08-09T20:59:17.598Z,58.88
2022-08-09T21:01:53.563Z,58.05
2022-08-09T21:05:51.261Z,57.77
2022-08-09T21:07:14.014Z,57.54
2022-08-09T21:09:45.905Z,57.87
2022-08-09T21:15:12.418Z,57.45
2022-08-09T21:18:22.356Z,57.38
2022-08-09T21:20:30.370Z,58.01
2022-08-09T21:23:00.498Z,57.28
2022-08-09T21:25:38.145Z,57.61
2022-08-09T21:28:06.452Z,58.63
2022-08-09T21:30:37.021Z,57.87
2022-08-09T21:33:11.154Z,58.22
2022-08-09T21:35:51.382Z,57.67
2022-08-09T21:38:31.053Z,58.89
2022-08-09T21:40:59.737Z,59.73
2022-08-09T21:43:56.042Z,59.61
2022-08-09T21:46:14.873Z,59.39
2022-08-09T21:48:49.129Z,59.26
2022-08-09T21:51:24.188Z,60.22
2022-08-09T21:54:05.253Z,60.71
2022-08-09T21:56:43.463Z,60.59
2022-08-09T21:59:20.457Z,63.24
2022-08-09T22:02:01.283Z,63.45
2022-08-09T22:04:55.361Z,63.60
2022-08-09T22:07:34.983Z,61.54
2022-08-09T22:10:09.459Z,60.71
2022-08-09T22:12:38.079Z,60.50
2022-08-09T22:15:13.831Z,60.34
2022-08-09T22:17:46.092Z,60.91
2022-08-09T22:20:17.048Z,60.58
2022-08-09T22:22:49.266Z,61.14
2022-08-09T22:26:05.670Z,60.36
2022-08-09T22:28:06.610Z,60.50
2022-08-09T22:30:35.105Z,60.40
2022-08-09T22:33:09.418Z,60.13
2022-08-09T22:36:01.793Z,60.99
2022-08-09T22:38:24.729Z,61.12
2022-08-09T22:40:57.583Z,60.52
2022-08-09T22:44:02.763Z,59.88
2022-08-09T22:48:11.233Z,60.39
2022-08-09T22:49:09.532Z,60.42
2022-08-09T22:51:38.582Z,60.89
2022-08-09T22:54:11.026Z,65.54
2022-08-09T22:56:41.574Z,68.06
2022-08-09T22:59:57.795Z,68.16
2022-08-09T23:01:57.409Z,67.98
2022-08-09T23:04:25.574Z,68.42
2022-08-09T23:06:53.168Z,67.25
2022-08-09T23:09:20.777Z,65.09
2022-08-09T23:11:49.481Z,66.53
2022-08-09T23:14:17.414Z,64.53
2022-08-09T23:16:45.265Z,63.25
2022-08-09T23:19:12.648Z,66.70
2022-08-09T23:21:40.152Z,64.57
2022-08-09T23:24:09.050Z,63.71
2022-08-09T23:26:37.142Z,63.37
2022-08-09T23:29:07.000Z,63.63
2022-08-09T23:31:34.621Z,64.78
2022-08-09T23:34:03.896Z,65.51
2022-08-09T23:36:32.008Z,66.40
2022-08-09T23:38:59.821Z,66.61
2022-08-09T23:41:29.256Z,65.51
2022-08-09T23:43:58.254Z,65.23
2022-08-09T23:46:28.268Z,64.35
2022-08-09T23:48:55.662Z,64.91
2022-08-09T23:51:23.018Z,65.08
2022-08-09T23:53:52.456Z,63.45
2022-08-09T23:56:52.860Z,66.50
2022-08-09T23:59:10.587Z,65.27
